sensor_id;sensor_type;location;lat;lon;timestamp;P1;durP1;ratioP1;P2;durP2;ratioP2
11473;SDS011;5793;52.238;13.438;2022-09-09T00:00:19;4.88;;;4.10;;
11473;SDS011;5793;52.238;13.438;2022-09-09T00:02:50;3.60;;;3.30;;
11473;SDS011;5793;52.238;13.438;2022-09-09T00:05:28;4.07;;;2.97;;
11473;SDS011;5793;52.238;13.438;2022-09-09T00:08:01;6.60;;;3.27;;
11473;SDS011;5793;52.238;13.438;2022-09-09T00:10:32;4.28;;;2.67;;
11473;SDS011;5793;52.238;13.438;2022-09-09T00:13:08;5.43;;;2.50;;
11473;SDS011;5793;52.238;13.438;2022-09-09T00:15:45;3.07;;;2.77;;
11473;SDS011;5793;52.238;13.438;2022-09-09T00:18:22;3.33;;;2.80;;
11473;SDS011;5793;52.238;13.438;2022-09-09T00:20:57;2.70;;;2.40;;
11473;SDS011;5793;52.238;13.438;2022-09-09T00:23:30;2.87;;;2.57;;
11473;SDS011;5793;52.238;13.438;2022-09-09T00:26:03;2.97;;;2.50;;
11473;SDS011;5793;52.238;13.438;2022-09-09T00:28:36;2.73;;;2.53;;
11473;SDS011;5793;52.238;13.438;2022-09-09T00:31:11;3.73;;;3.17;;
11473;SDS011;5793;52.238;13.438;2022-09-09T00:33:40;3.60;;;3.30;;
11473;SDS011;5793;52.238;13.438;2022-09-09T00:36:13;5.13;;;3.72;;
11473;SDS011;5793;52.238;13.438;2022-09-09T00:38:45;3.10;;;2.80;;
11473;SDS011;5793;52.238;13.438;2022-09-09T00:41:17;2.73;;;2.50;;
11473;SDS011;5793;52.238;13.438;2022-09-09T00:43:54;2.73;;;2.53;;
11473;SDS011;5793;52.238;13.438;2022-09-09T00:46:32;2.87;;;2.67;;
11473;SDS011;5793;52.238;13.438;2022-09-09T00:49:15;3.70;;;3.40;;
11473;SDS011;5793;52.238;13.438;2022-09-09T00:51:59;6.97;;;4.50;;
11473;SDS011;5793;52.238;13.438;2022-09-09T00:54:38;7.20;;;4.20;;
11473;SDS011;5793;52.238;13.438;2022-09-09T00:57:13;4.83;;;4.33;;
11473;SDS011;5793;52.238;13.438;2022-09-09T00:59:58;4.43;;;4.03;;
11473;SDS011;5793;52.238;13.438;2022-09-09T01:02:45;4.43;;;3.60;;
11473;SDS011;5793;52.238;13.438;2022-09-09T01:05:26;6.00;;;4.30;;
11473;SDS011;5793;52.238;13.438;2022-09-09T01:08:02;4.70;;;4.30;;
11473;SDS011;5793;52.238;13.438;2022-09-09T01:10:40;5.13;;;4.30;;
11473;SDS011;5793;52.238;13.438;2022-09-09T01:13:15;5.13;;;4.63;;
11473;SDS011;5793;52.238;13.438;2022-09-09T01:15:49;6.07;;;4.60;;
11473;SDS011;5793;52.238;13.438;2022-09-09T01:18:26;4.70;;;4.17;;
11473;SDS011;5793;52.238;13.438;2022-09-09T01:21:02;7.97;;;4.77;;
11473;SDS011;5793;52.238;13.438;2022-09-09T01:23:41;4.85;;;4.35;;
11473;SDS011;5793;52.238;13.438;2022-09-09T01:26:26;4.30;;;3.90;;
11473;SDS011;5793;52.238;13.438;2022-09-09T01:28:57;6.73;;;4.57;;
11473;SDS011;5793;52.238;13.438;2022-09-09T01:31:26;6.27;;;4.90;;
11473;SDS011;5793;52.238;13.438;2022-09-09T01:33:57;5.10;;;4.70;;
11473;SDS011;5793;52.238;13.438;2022-09-09T01:36:27;5.73;;;5.23;;
11473;SDS011;5793;52.238;13.438;2022-09-09T01:39:02;5.27;;;4.77;;
11473;SDS011;5793;52.238;13.438;2022-09-09T01:41:31;5.60;;;5.10;;
11473;SDS011;5793;52.238;13.438;2022-09-09T01:43:59;5.57;;;5.07;;
11473;SDS011;5793;52.238;13.438;2022-09-09T01:46:27;8.10;;;4.17;;
11473;SDS011;5793;52.238;13.438;2022-09-09T01:48:56;7.17;;;4.40;;
11473;SDS011;5793;52.238;13.438;2022-09-09T01:51:26;6.47;;;4.10;;
11473;SDS011;5793;52.238;13.438;2022-09-09T01:53:54;5.47;;;4.20;;
11473;SDS011;5793;52.238;13.438;2022-09-09T01:56:25;4.53;;;4.07;;
11473;SDS011;5793;52.238;13.438;2022-09-09T01:59:08;5.37;;;4.73;;
11473;SDS011;5793;52.238;13.438;2022-09-09T02:01:49;4.93;;;4.33;;
11473;SDS011;5793;52.238;13.438;2022-09-09T02:04:34;4.87;;;4.37;;
11473;SDS011;5793;52.238;13.438;2022-09-09T02:07:07;5.63;;;4.70;;
11473;SDS011;5793;52.238;13.438;2022-09-09T02:09:40;4.85;;;4.45;;
11473;SDS011;5793;52.238;13.438;2022-09-09T02:12:13;4.43;;;4.03;;
11473;SDS011;5793;52.238;13.438;2022-09-09T02:14:47;5.03;;;4.57;;
11473;SDS011;5793;52.238;13.438;2022-09-09T02:17:21;4.83;;;4.27;;
11473;SDS011;5793;52.238;13.438;2022-09-09T02:19:52;5.57;;;4.93;;
11473;SDS011;5793;52.238;13.438;2022-09-09T02:22:24;6.47;;;4.60;;
11473;SDS011;5793;52.238;13.438;2022-09-09T02:24:54;5.27;;;4.77;;
11473;SDS011;5793;52.238;13.438;2022-09-09T02:27:27;7.77;;;4.93;;
11473;SDS011;5793;52.238;13.438;2022-09-09T02:29:55;5.03;;;4.30;;
11473;SDS011;5793;52.238;13.438;2022-09-09T02:32:26;4.57;;;4.17;;
11473;SDS011;5793;52.238;13.438;2022-09-09T02:34:57;3.83;;;3.53;;
11473;SDS011;5793;52.238;13.438;2022-09-09T02:37:29;3.80;;;3.40;;
11473;SDS011;5793;52.238;13.438;2022-09-09T02:40:03;5.10;;;4.20;;
11473;SDS011;5793;52.238;13.438;2022-09-09T02:42:39;5.73;;;5.07;;
11473;SDS011;5793;52.238;13.438;2022-09-09T02:45:07;5.70;;;4.90;;
11473;SDS011;5793;52.238;13.438;2022-09-09T02:47:37;5.83;;;4.37;;
11473;SDS011;5793;52.238;13.438;2022-09-09T02:50:12;5.23;;;4.73;;
11473;SDS011;5793;52.238;13.438;2022-09-09T02:52:47;5.67;;;4.10;;
11473;SDS011;5793;52.238;13.438;2022-09-09T02:55:31;6.60;;;4.80;;
11473;SDS011;5793;52.238;13.438;2022-09-09T02:58:07;5.17;;;4.70;;
11473;SDS011;5793;52.238;13.438;2022-09-09T03:00:38;6.23;;;5.00;;
11473;SDS011;5793;52.238;13.438;2022-09-09T03:03:07;5.17;;;4.67;;
11473;SDS011;5793;52.238;13.438;2022-09-09T03:05:36;5.20;;;4.43;;
11473;SDS011;5793;52.238;13.438;2022-09-09T03:08:04;5.03;;;4.10;;
11473;SDS011;5793;52.238;13.438;2022-09-09T03:10:32;4.93;;;4.37;;
11473;SDS011;5793;52.238;13.438;2022-09-09T03:13:01;5.23;;;4.10;;
11473;SDS011;5793;52.238;13.438;2022-09-09T03:15:32;4.60;;;4.10;;
11473;SDS011;5793;52.238;13.438;2022-09-09T03:18:00;4.57;;;4.17;;
11473;SDS011;5793;52.238;13.438;2022-09-09T03:20:29;6.03;;;4.83;;
11473;SDS011;5793;52.238;13.438;2022-09-09T03:22:58;4.40;;;4.00;;
11473;SDS011;5793;52.238;13.438;2022-09-09T03:25:27;5.43;;;4.60;;
11473;SDS011;5793;52.238;13.438;2022-09-09T03:27:55;5.07;;;4.57;;
11473;SDS011;5793;52.238;13.438;2022-09-09T03:30:23;4.80;;;4.30;;
11473;SDS011;5793;52.238;13.438;2022-09-09T03:32:54;5.77;;;4.07;;
11473;SDS011;5793;52.238;13.438;2022-09-09T03:35:22;5.60;;;4.87;;
11473;SDS011;5793;52.238;13.438;2022-09-09T03:37:51;5.13;;;4.43;;
11473;SDS011;5793;52.238;13.438;2022-09-09T03:40:19;6.73;;;4.07;;
11473;SDS011;5793;52.238;13.438;2022-09-09T03:42:46;6.03;;;4.37;;
11473;SDS011;5793;52.238;13.438;2022-09-09T03:45:14;4.53;;;3.80;;
11473;SDS011;5793;52.238;13.438;2022-09-09T03:47:43;5.40;;;3.80;;
11473;SDS011;5793;52.238;13.438;2022-09-09T03:50:12;4.93;;;3.67;;
11473;SDS011;5793;52.238;13.438;2022-09-09T03:52:40;3.77;;;3.47;;
11473;SDS011;5793;52.238;13.438;2022-09-09T03:55:08;4.77;;;4.27;;
11473;SDS011;5793;52.238;13.438;2022-09-09T03:57:36;3.77;;;3.13;;
11473;SDS011;5793;52.238;13.438;2022-09-09T04:00:05;4.00;;;3.60;;
11473;SDS011;5793;52.238;13.438;2022-09-09T04:02:34;6.30;;;3.40;;
11473;SDS011;5793;52.238;13.438;2022-09-09T04:05:02;3.47;;;3.17;;
11473;SDS011;5793;52.238;13.438;2022-09-09T04:07:31;6.90;;;4.20;;
11473;SDS011;5793;52.238;13.438;2022-09-09T04:09:59;4.20;;;3.80;;
11473;SDS011;5793;52.238;13.438;2022-09-09T04:12:27;4.13;;;3.60;;
11473;SDS011;5793;52.238;13.438;2022-09-09T04:14:55;4.83;;;4.07;;
11473;SDS011;5793;52.238;13.438;2022-09-09T04:17:23;3.87;;;3.57;;
11473;SDS011;5793;52.238;13.438;2022-09-09T04:19:51;4.43;;;3.67;;
11473;SDS011;5793;52.238;13.438;2022-09-09T04:22:18;5.77;;;3.30;;
11473;SDS011;5793;52.238;13.438;2022-09-09T04:24:47;3.77;;;3.40;;
11473;SDS011;5793;52.238;13.438;2022-09-09T04:27:15;3.93;;;3.40;;
11473;SDS011;5793;52.238;13.438;2022-09-09T04:29:43;3.60;;;2.90;;
11473;SDS011;5793;52.238;13.438;2022-09-09T04:32:10;3.60;;;3.30;;
11473;SDS011;5793;52.238;13.438;2022-09-09T04:34:38;3.83;;;2.87;;
11473;SDS011;5793;52.238;13.438;2022-09-09T04:37:07;5.77;;;3.60;;
11473;SDS011;5793;52.238;13.438;2022-09-09T04:39:35;5.97;;;3.33;;
11473;SDS011;5793;52.238;13.438;2022-09-09T04:42:05;6.33;;;3.70;;
11473;SDS011;5793;52.238;13.438;2022-09-09T04:44:33;3.90;;;2.90;;
11473;SDS011;5793;52.238;13.438;2022-09-09T04:47:01;3.20;;;2.90;;
11473;SDS011;5793;52.238;13.438;2022-09-09T04:49:28;4.33;;;3.17;;
11473;SDS011;5793;52.238;13.438;2022-09-09T04:51:57;5.43;;;3.20;;
11473;SDS011;5793;52.238;13.438;2022-09-09T04:54:25;3.57;;;3.27;;
11473;SDS011;5793;52.238;13.438;2022-09-09T04:56:53;3.27;;;2.97;;
11473;SDS011;5793;52.238;13.438;2022-09-09T04:59:23;3.77;;;3.10;;
11473;SDS011;5793;52.238;13.438;2022-09-09T05:01:51;6.43;;;3.67;;
11473;SDS011;5793;52.238;13.438;2022-09-09T05:04:21;5.70;;;3.47;;
11473;SDS011;5793;52.238;13.438;2022-09-09T05:06:49;4.87;;;3.63;;
11473;SDS011;5793;52.238;13.438;2022-09-09T05:09:16;4.13;;;3.50;;
11473;SDS011;5793;52.238;13.438;2022-09-09T05:11:44;5.50;;;3.80;;
11473;SDS011;5793;52.238;13.438;2022-09-09T05:14:12;7.33;;;3.83;;
11473;SDS011;5793;52.238;13.438;2022-09-09T05:16:42;5.33;;;3.70;;
11473;SDS011;5793;52.238;13.438;2022-09-09T05:19:11;7.67;;;3.60;;
11473;SDS011;5793;52.238;13.438;2022-09-09T05:21:39;9.23;;;4.60;;
11473;SDS011;5793;52.238;13.438;2022-09-09T05:24:07;11.43;;;5.70;;
11473;SDS011;5793;52.238;13.438;2022-09-09T05:26:35;9.83;;;4.63;;
11473;SDS011;5793;52.238;13.438;2022-09-09T05:29:03;7.70;;;4.43;;
11473;SDS011;5793;52.238;13.438;2022-09-09T05:31:32;12.83;;;4.53;;
11473;SDS011;5793;52.238;13.438;2022-09-09T05:34:01;15.77;;;5.27;;
11473;SDS011;5793;52.238;13.438;2022-09-09T05:36:29;12.63;;;4.50;;
11473;SDS011;5793;52.238;13.438;2022-09-09T05:38:56;7.00;;;3.87;;
11473;SDS011;5793;52.238;13.438;2022-09-09T05:41:24;8.20;;;4.00;;
11473;SDS011;5793;52.238;13.438;2022-09-09T05:43:52;10.27;;;4.47;;
11473;SDS011;5793;52.238;13.438;2022-09-09T05:46:20;9.03;;;4.13;;
11473;SDS011;5793;52.238;13.438;2022-09-09T05:48:49;10.77;;;4.00;;
11473;SDS011;5793;52.238;13.438;2022-09-09T05:51:20;7.07;;;4.17;;
11473;SDS011;5793;52.238;13.438;2022-09-09T05:53:48;17.40;;;4.60;;
11473;SDS011;5793;52.238;13.438;2022-09-09T05:56:17;10.13;;;4.20;;
11473;SDS011;5793;52.238;13.438;2022-09-09T05:58:48;12.13;;;4.60;;
11473;SDS011;5793;52.238;13.438;2022-09-09T06:01:18;11.00;;;4.97;;
11473;SDS011;5793;52.238;13.438;2022-09-09T06:03:48;18.23;;;6.07;;
11473;SDS011;5793;52.238;13.438;2022-09-09T06:06:18;13.47;;;5.77;;
11473;SDS011;5793;52.238;13.438;2022-09-09T06:08:50;14.13;;;4.78;;
11473;SDS011;5793;52.238;13.438;2022-09-09T06:11:20;13.40;;;4.87;;
11473;SDS011;5793;52.238;13.438;2022-09-09T06:13:49;6.45;;;4.03;;
11473;SDS011;5793;52.238;13.438;2022-09-09T06:16:20;4.65;;;3.28;;
11473;SDS011;5793;52.238;13.438;2022-09-09T06:18:50;3.88;;;2.90;;
11473;SDS011;5793;52.238;13.438;2022-09-09T06:21:21;4.57;;;3.03;;
11473;SDS011;5793;52.238;13.438;2022-09-09T06:23:49;4.03;;;3.05;;
11473;SDS011;5793;52.238;13.438;2022-09-09T06:26:25;6.32;;;3.03;;
11473;SDS011;5793;52.238;13.438;2022-09-09T06:28:54;8.15;;;3.50;;
11473;SDS011;5793;52.238;13.438;2022-09-09T06:31:24;4.88;;;3.25;;
11473;SDS011;5793;52.238;13.438;2022-09-09T06:33:56;3.70;;;2.97;;
11473;SDS011;5793;52.238;13.438;2022-09-09T06:36:27;4.47;;;2.67;;
11473;SDS011;5793;52.238;13.438;2022-09-09T06:38:56;4.38;;;3.08;;
11473;SDS011;5793;52.238;13.438;2022-09-09T06:41:24;6.38;;;3.13;;
11473;SDS011;5793;52.238;13.438;2022-09-09T06:43:53;5.03;;;2.72;;
11473;SDS011;5793;52.238;13.438;2022-09-09T06:46:23;4.32;;;3.00;;
11473;SDS011;5793;52.238;13.438;2022-09-09T06:48:54;6.05;;;3.28;;
11473;SDS011;5793;52.238;13.438;2022-09-09T06:51:25;4.85;;;3.17;;
11473;SDS011;5793;52.238;13.438;2022-09-09T06:53:56;4.25;;;3.00;;
11473;SDS011;5793;52.238;13.438;2022-09-09T06:56:25;4.65;;;2.80;;
11473;SDS011;5793;52.238;13.438;2022-09-09T06:58:55;3.72;;;2.53;;
11473;SDS011;5793;52.238;13.438;2022-09-09T07:01:24;3.22;;;2.67;;
11473;SDS011;5793;52.238;13.438;2022-09-09T07:03:54;4.28;;;2.90;;
11473;SDS011;5793;52.238;13.438;2022-09-09T07:06:24;3.00;;;2.53;;
11473;SDS011;5793;52.238;13.438;2022-09-09T07:08:54;4.25;;;2.97;;
11473;SDS011;5793;52.238;13.438;2022-09-09T07:11:24;5.15;;;3.10;;
11473;SDS011;5793;52.238;13.438;2022-09-09T07:13:54;5.25;;;2.47;;
11473;SDS011;5793;52.238;13.438;2022-09-09T07:16:23;6.13;;;2.90;;
11473;SDS011;5793;52.238;13.438;2022-09-09T07:18:51;5.68;;;2.70;;
11473;SDS011;5793;52.238;13.438;2022-09-09T07:21:24;7.53;;;2.80;;
11473;SDS011;5793;52.238;13.438;2022-09-09T07:23:54;4.68;;;2.33;;
11473;SDS011;5793;52.238;13.438;2022-09-09T07:26:23;3.53;;;2.38;;
11473;SDS011;5793;52.238;13.438;2022-09-09T07:28:53;3.47;;;2.30;;
11473;SDS011;5793;52.238;13.438;2022-09-09T07:31:24;5.53;;;2.05;;
11473;SDS011;5793;52.238;13.438;2022-09-09T07:33:53;4.50;;;2.08;;
11473;SDS011;5793;52.238;13.438;2022-09-09T07:36:22;3.47;;;2.05;;
11473;SDS011;5793;52.238;13.438;2022-09-09T07:39:00;3.08;;;2.20;;
11473;SDS011;5793;52.238;13.438;2022-09-09T07:41:29;3.20;;;1.98;;
11473;SDS011;5793;52.238;13.438;2022-09-09T07:44:03;7.35;;;2.30;;
11473;SDS011;5793;52.238;13.438;2022-09-09T07:46:32;4.15;;;1.95;;
11473;SDS011;5793;52.238;13.438;2022-09-09T07:49:00;6.50;;;2.55;;
11473;SDS011;5793;52.238;13.438;2022-09-09T07:51:29;5.38;;;2.30;;
11473;SDS011;5793;52.238;13.438;2022-09-09T07:54:00;2.85;;;1.92;;
11473;SDS011;5793;52.238;13.438;2022-09-09T07:56:29;5.65;;;2.25;;
11473;SDS011;5793;52.238;13.438;2022-09-09T07:58:58;3.78;;;1.90;;
11473;SDS011;5793;52.238;13.438;2022-09-09T08:01:28;3.25;;;1.90;;
11473;SDS011;5793;52.238;13.438;2022-09-09T08:03:58;3.38;;;1.92;;
11473;SDS011;5793;52.238;13.438;2022-09-09T08:06:27;4.85;;;2.00;;
11473;SDS011;5793;52.238;13.438;2022-09-09T08:08:56;2.95;;;1.45;;
11473;SDS011;5793;52.238;13.438;2022-09-09T08:11:26;3.78;;;1.52;;
11473;SDS011;5793;52.238;13.438;2022-09-09T08:13:55;3.30;;;1.83;;
11473;SDS011;5793;52.238;13.438;2022-09-09T08:16:28;3.78;;;1.73;;
11473;SDS011;5793;52.238;13.438;2022-09-09T08:18:58;2.95;;;1.75;;
11473;SDS011;5793;52.238;13.438;2022-09-09T08:21:26;2.75;;;1.55;;
11473;SDS011;5793;52.238;13.438;2022-09-09T08:23:56;5.57;;;1.95;;
11473;SDS011;5793;52.238;13.438;2022-09-09T08:26:27;3.25;;;1.73;;
11473;SDS011;5793;52.238;13.438;2022-09-09T08:28:56;2.88;;;1.75;;
11473;SDS011;5793;52.238;13.438;2022-09-09T08:31:25;3.65;;;1.63;;
11473;SDS011;5793;52.238;13.438;2022-09-09T08:33:55;2.88;;;1.65;;
11473;SDS011;5793;52.238;13.438;2022-09-09T08:36:26;2.92;;;1.63;;
11473;SDS011;5793;52.238;13.438;2022-09-09T08:38:55;2.05;;;1.42;;
11473;SDS011;5793;52.238;13.438;2022-09-09T08:41:35;3.35;;;1.80;;
11473;SDS011;5793;52.238;13.438;2022-09-09T08:44:30;2.38;;;1.40;;
11473;SDS011;5793;52.238;13.438;2022-09-09T08:47:14;4.43;;;1.58;;
11473;SDS011;5793;52.238;13.438;2022-09-09T08:49:55;5.45;;;1.70;;
11473;SDS011;5793;52.238;13.438;2022-09-09T08:52:31;2.30;;;1.35;;
11473;SDS011;5793;52.238;13.438;2022-09-09T08:55:11;3.63;;;1.45;;
11473;SDS011;5793;52.238;13.438;2022-09-09T08:57:49;2.55;;;1.33;;
11473;SDS011;5793;52.238;13.438;2022-09-09T09:00:18;3.67;;;1.50;;
11473;SDS011;5793;52.238;13.438;2022-09-09T09:02:48;4.63;;;1.38;;
11473;SDS011;5793;52.238;13.438;2022-09-09T09:05:25;3.05;;;1.42;;
11473;SDS011;5793;52.238;13.438;2022-09-09T09:08:00;3.38;;;1.50;;
11473;SDS011;5793;52.238;13.438;2022-09-09T09:10:35;2.28;;;1.10;;
11473;SDS011;5793;52.238;13.438;2022-09-09T09:13:13;3.15;;;1.23;;
11473;SDS011;5793;52.238;13.438;2022-09-09T09:15:48;2.65;;;1.35;;
11473;SDS011;5793;52.238;13.438;2022-09-09T09:18:20;2.88;;;1.40;;
11473;SDS011;5793;52.238;13.438;2022-09-09T09:20:50;2.70;;;1.30;;
11473;SDS011;5793;52.238;13.438;2022-09-09T09:23:25;3.55;;;1.55;;
11473;SDS011;5793;52.238;13.438;2022-09-09T09:25:58;2.65;;;1.10;;
11473;SDS011;5793;52.238;13.438;2022-09-09T09:28:30;3.58;;;1.40;;
11473;SDS011;5793;52.238;13.438;2022-09-09T09:31:00;2.75;;;1.40;;
11473;SDS011;5793;52.238;13.438;2022-09-09T09:33:32;3.83;;;1.20;;
11473;SDS011;5793;52.238;13.438;2022-09-09T09:36:07;2.70;;;1.23;;
11473;SDS011;5793;52.238;13.438;2022-09-09T09:38:36;3.95;;;1.25;;
11473;SDS011;5793;52.238;13.438;2022-09-09T09:41:31;2.22;;;1.20;;
11473;SDS011;5793;52.238;13.438;2022-09-09T09:44:02;1.92;;;1.40;;
11473;SDS011;5793;52.238;13.438;2022-09-09T09:46:31;2.42;;;1.10;;
11473;SDS011;5793;52.238;13.438;2022-09-09T09:48:59;3.65;;;1.20;;
11473;SDS011;5793;52.238;13.438;2022-09-09T09:51:29;3.25;;;1.35;;
11473;SDS011;5793;52.238;13.438;2022-09-09T09:54:07;2.20;;;0.95;;
11473;SDS011;5793;52.238;13.438;2022-09-09T09:56:41;3.00;;;1.15;;
11473;SDS011;5793;52.238;13.438;2022-09-09T09:59:20;4.90;;;1.40;;
11473;SDS011;5793;52.238;13.438;2022-09-09T10:02:14;2.45;;;1.30;;
11473;SDS011;5793;52.238;13.438;2022-09-09T10:04:44;2.15;;;1.40;;
11473;SDS011;5793;52.238;13.438;2022-09-09T10:07:15;3.90;;;1.65;;
11473;SDS011;5793;52.238;13.438;2022-09-09T10:09:45;3.22;;;1.20;;
11473;SDS011;5793;52.238;13.438;2022-09-09T10:12:20;2.72;;;2.00;;
11473;SDS011;5793;52.238;13.438;2022-09-09T10:14:59;3.47;;;1.38;;
11473;SDS011;5793;52.238;13.438;2022-09-09T10:17:34;1.92;;;1.17;;
11473;SDS011;5793;52.238;13.438;2022-09-09T10:20:14;2.80;;;1.40;;
11473;SDS011;5793;52.238;13.438;2022-09-09T10:22:56;1.67;;;1.05;;
11473;SDS011;5793;52.238;13.438;2022-09-09T10:25:40;2.03;;;1.10;;
11473;SDS011;5793;52.238;13.438;2022-09-09T10:28:25;1.75;;;1.30;;
11473;SDS011;5793;52.238;13.438;2022-09-09T10:31:12;3.17;;;1.30;;
11473;SDS011;5793;52.238;13.438;2022-09-09T10:33:49;2.33;;;1.20;;
11473;SDS011;5793;52.238;13.438;2022-09-09T10:36:19;2.22;;;1.10;;
11473;SDS011;5793;52.238;13.438;2022-09-09T10:38:52;3.78;;;1.30;;
11473;SDS011;5793;52.238;13.438;2022-09-09T10:41:29;5.80;;;1.27;;
11473;SDS011;5793;52.238;13.438;2022-09-09T10:44:14;2.90;;;1.40;;
11473;SDS011;5793;52.238;13.438;2022-09-09T10:46:55;2.63;;;1.20;;
11473;SDS011;5793;52.238;13.438;2022-09-09T10:49:40;3.00;;;1.35;;
11473;SDS011;5793;52.238;13.438;2022-09-09T10:52:22;2.63;;;1.30;;
11473;SDS011;5793;52.238;13.438;2022-09-09T10:54:56;2.83;;;1.27;;
11473;SDS011;5793;52.238;13.438;2022-09-09T10:57:28;3.90;;;1.10;;
11473;SDS011;5793;52.238;13.438;2022-09-09T11:00:02;3.60;;;1.50;;
11473;SDS011;5793;52.238;13.438;2022-09-09T11:02:33;4.03;;;1.60;;
11473;SDS011;5793;52.238;13.438;2022-09-09T11:05:03;2.35;;;1.20;;
11473;SDS011;5793;52.238;13.438;2022-09-09T11:07:35;3.60;;;1.40;;
11473;SDS011;5793;52.238;13.438;2022-09-09T11:10:14;1.90;;;1.17;;
11473;SDS011;5793;52.238;13.438;2022-09-09T11:12:48;4.45;;;1.45;;
11473;SDS011;5793;52.238;13.438;2022-09-09T11:15:22;3.45;;;1.70;;
11473;SDS011;5793;52.238;13.438;2022-09-09T11:17:57;3.88;;;1.10;;
11473;SDS011;5793;52.238;13.438;2022-09-09T11:20:28;3.42;;;1.20;;
11473;SDS011;5793;52.238;13.438;2022-09-09T11:22:58;2.47;;;1.40;;
11473;SDS011;5793;52.238;13.438;2022-09-09T11:25:30;3.30;;;1.10;;
11473;SDS011;5793;52.238;13.438;2022-09-09T11:28:14;2.33;;;1.20;;
11473;SDS011;5793;52.238;13.438;2022-09-09T11:30:54;2.00;;;1.15;;
11473;SDS011;5793;52.238;13.438;2022-09-09T11:33:45;3.05;;;1.33;;
11473;SDS011;5793;52.238;13.438;2022-09-09T11:36:25;3.65;;;1.40;;
11473;SDS011;5793;52.238;13.438;2022-09-09T11:39:23;2.38;;;1.27;;
11473;SDS011;5793;52.238;13.438;2022-09-09T11:42:15;3.25;;;1.20;;
11473;SDS011;5793;52.238;13.438;2022-09-09T11:44:45;2.05;;;1.15;;
11473;SDS011;5793;52.238;13.438;2022-09-09T11:47:21;2.03;;;1.10;;
11473;SDS011;5793;52.238;13.438;2022-09-09T11:50:06;5.30;;;1.27;;
11473;SDS011;5793;52.238;13.438;2022-09-09T11:52:36;3.28;;;1.13;;
11473;SDS011;5793;52.238;13.438;2022-09-09T11:55:08;4.75;;;1.20;;
11473;SDS011;5793;52.238;13.438;2022-09-09T11:57:38;4.43;;;1.35;;
11473;SDS011;5793;52.238;13.438;2022-09-09T12:02:59;2.92;;;1.08;;
11473;SDS011;5793;52.238;13.438;2022-09-09T12:05:36;2.97;;;1.33;;
11473;SDS011;5793;52.238;13.438;2022-09-09T12:08:08;5.50;;;1.70;;
11473;SDS011;5793;52.238;13.438;2022-09-09T12:10:38;2.70;;;1.30;;
11473;SDS011;5793;52.238;13.438;2022-09-09T12:13:07;4.40;;;1.35;;
11473;SDS011;5793;52.238;13.438;2022-09-09T12:15:46;2.53;;;1.40;;
11473;SDS011;5793;52.238;13.438;2022-09-09T12:18:16;1.92;;;1.10;;
11473;SDS011;5793;52.238;13.438;2022-09-09T12:20:54;2.30;;;1.33;;
11473;SDS011;5793;52.238;13.438;2022-09-09T12:23:33;3.40;;;1.23;;
11473;SDS011;5793;52.238;13.438;2022-09-09T12:26:21;2.85;;;1.13;;
11473;SDS011;5793;52.238;13.438;2022-09-09T12:29:05;2.90;;;1.33;;
11473;SDS011;5793;52.238;13.438;2022-09-09T12:31:46;2.13;;;1.10;;
11473;SDS011;5793;52.238;13.438;2022-09-09T12:34:26;2.47;;;1.27;;
11473;SDS011;5793;52.238;13.438;2022-09-09T12:37:04;2.47;;;1.25;;
11473;SDS011;5793;52.238;13.438;2022-09-09T12:39:40;2.17;;;1.20;;
11473;SDS011;5793;52.238;13.438;2022-09-09T12:42:16;2.83;;;1.13;;
11473;SDS011;5793;52.238;13.438;2022-09-09T12:44:51;2.20;;;1.10;;
11473;SDS011;5793;52.238;13.438;2022-09-09T12:47:21;3.88;;;1.13;;
11473;SDS011;5793;52.238;13.438;2022-09-09T12:49:56;5.20;;;1.30;;
11473;SDS011;5793;52.238;13.438;2022-09-09T12:52:27;2.22;;;1.10;;
11473;SDS011;5793;52.238;13.438;2022-09-09T12:54:57;4.90;;;1.52;;
11473;SDS011;5793;52.238;13.438;2022-09-09T12:57:26;2.60;;;1.38;;
11473;SDS011;5793;52.238;13.438;2022-09-09T13:00:07;5.78;;;1.60;;
11473;SDS011;5793;52.238;13.438;2022-09-09T13:02:45;3.92;;;1.30;;
11473;SDS011;5793;52.238;13.438;2022-09-09T13:05:17;2.88;;;1.08;;
11473;SDS011;5793;52.238;13.438;2022-09-09T13:07:48;8.90;;;1.95;;
11473;SDS011;5793;52.238;13.438;2022-09-09T13:10:20;2.83;;;1.33;;
11473;SDS011;5793;52.238;13.438;2022-09-09T13:13:13;1.88;;;1.20;;
11473;SDS011;5793;52.238;13.438;2022-09-09T13:15:48;2.33;;;1.15;;
11473;SDS011;5793;52.238;13.438;2022-09-09T13:18:17;1.98;;;1.20;;
11473;SDS011;5793;52.238;13.438;2022-09-09T13:20:49;4.10;;;1.42;;
11473;SDS011;5793;52.238;13.438;2022-09-09T13:23:19;4.45;;;1.08;;
11473;SDS011;5793;52.238;13.438;2022-09-09T13:25:55;2.85;;;1.08;;
11473;SDS011;5793;52.238;13.438;2022-09-09T13:28:24;4.28;;;1.10;;
11473;SDS011;5793;52.238;13.438;2022-09-09T13:33:30;9.50;;;1.50;;
11473;SDS011;5793;52.238;13.438;2022-09-09T13:35:59;3.88;;;1.30;;
11473;SDS011;5793;52.238;13.438;2022-09-09T13:38:31;3.20;;;1.20;;
11473;SDS011;5793;52.238;13.438;2022-09-09T13:41:02;4.60;;;1.55;;
11473;SDS011;5793;52.238;13.438;2022-09-09T13:43:34;9.82;;;3.28;;
11473;SDS011;5793;52.238;13.438;2022-09-09T13:46:05;3.42;;;1.60;;
11473;SDS011;5793;52.238;13.438;2022-09-09T13:48:55;3.42;;;1.00;;
11473;SDS011;5793;52.238;13.438;2022-09-09T13:51:28;18.10;;;6.20;;
11473;SDS011;5793;52.238;13.438;2022-09-09T13:54:00;4.53;;;1.30;;
11473;SDS011;5793;52.238;13.438;2022-09-09T13:56:28;6.25;;;2.55;;
11473;SDS011;5793;52.238;13.438;2022-09-09T13:58:56;1.65;;;1.10;;
11473;SDS011;5793;52.238;13.438;2022-09-09T14:01:24;3.15;;;1.30;;
11473;SDS011;5793;52.238;13.438;2022-09-09T14:03:56;3.60;;;1.27;;
11473;SDS011;5793;52.238;13.438;2022-09-09T14:06:25;5.68;;;1.77;;
11473;SDS011;5793;52.238;13.438;2022-09-09T14:08:53;7.03;;;1.67;;
11473;SDS011;5793;52.238;13.438;2022-09-09T14:11:21;2.75;;;1.40;;
11473;SDS011;5793;52.238;13.438;2022-09-09T14:13:49;2.28;;;1.40;;
11473;SDS011;5793;52.238;13.438;2022-09-09T14:16:17;6.00;;;1.85;;
11473;SDS011;5793;52.238;13.438;2022-09-09T14:18:46;3.63;;;1.58;;
11473;SDS011;5793;52.238;13.438;2022-09-09T14:21:16;2.13;;;1.20;;
11473;SDS011;5793;52.238;13.438;2022-09-09T14:23:44;4.25;;;1.45;;
11473;SDS011;5793;52.238;13.438;2022-09-09T14:26:12;3.83;;;1.20;;
11473;SDS011;5793;52.238;13.438;2022-09-09T14:28:39;2.63;;;1.20;;
11473;SDS011;5793;52.238;13.438;2022-09-09T14:31:20;2.22;;;1.25;;
11473;SDS011;5793;52.238;13.438;2022-09-09T14:33:48;2.13;;;1.10;;
11473;SDS011;5793;52.238;13.438;2022-09-09T14:36:18;5.78;;;1.42;;
11473;SDS011;5793;52.238;13.438;2022-09-09T14:38:46;4.93;;;1.30;;
11473;SDS011;5793;52.238;13.438;2022-09-09T14:41:15;6.40;;;1.42;;
11473;SDS011;5793;52.238;13.438;2022-09-09T14:43:44;3.78;;;1.20;;
11473;SDS011;5793;52.238;13.438;2022-09-09T14:46:13;3.15;;;1.33;;
11473;SDS011;5793;52.238;13.438;2022-09-09T14:48:42;6.35;;;2.25;;
11473;SDS011;5793;52.238;13.438;2022-09-09T14:51:11;1.90;;;1.15;;
11473;SDS011;5793;52.238;13.438;2022-09-09T14:53:42;4.55;;;1.40;;
11473;SDS011;5793;52.238;13.438;2022-09-09T14:56:11;2.78;;;1.65;;
11473;SDS011;5793;52.238;13.438;2022-09-09T14:58:40;3.53;;;1.45;;
11473;SDS011;5793;52.238;13.438;2022-09-09T15:01:09;6.03;;;1.30;;
11473;SDS011;5793;52.238;13.438;2022-09-09T15:03:39;2.08;;;1.15;;
11473;SDS011;5793;52.238;13.438;2022-09-09T15:06:08;3.63;;;1.38;;
11473;SDS011;5793;52.238;13.438;2022-09-09T15:08:37;4.00;;;1.20;;
11473;SDS011;5793;52.238;13.438;2022-09-09T15:11:10;1.73;;;1.10;;
11473;SDS011;5793;52.238;13.438;2022-09-09T15:13:39;3.40;;;1.10;;
11473;SDS011;5793;52.238;13.438;2022-09-09T15:16:09;2.83;;;1.00;;
11473;SDS011;5793;52.238;13.438;2022-09-09T15:18:38;4.03;;;0.98;;
11473;SDS011;5793;52.238;13.438;2022-09-09T15:21:09;1.92;;;0.90;;
11473;SDS011;5793;52.238;13.438;2022-09-09T15:23:37;1.58;;;1.10;;